createdAt,value
2022-12-18T00:01:40.782Z,-3.30
2022-12-18T00:04:19.914Z,-3.40
2022-12-18T00:06:47.297Z,-3.40
2022-12-18T00:09:15.914Z,-3.40
2022-12-18T00:11:43.321Z,-3.40
2022-12-18T00:14:12.432Z,-3.30
2022-12-18T00:16:40.260Z,-3.30
2022-12-18T00:19:08.358Z,-3.30
2022-12-18T00:21:35.640Z,-3.40
2022-12-18T00:24:02.930Z,-3.40
2022-12-18T00:26:33.321Z,-3.40
2022-12-18T00:29:17.107Z,-3.30
2022-12-18T00:31:44.999Z,-3.30
2022-12-18T00:34:13.690Z,-3.30
2022-12-18T00:36:42.091Z,-3.30
2022-12-18T00:39:11.668Z,-3.30
2022-12-18T00:41:57.338Z,-3.30
2022-12-18T00:44:26.314Z,-3.30
2022-12-18T00:46:53.465Z,-3.30
2022-12-18T00:49:21.498Z,-3.20
2022-12-18T00:51:49.338Z,-3.20
2022-12-18T00:54:17.168Z,-3.20
2022-12-18T00:56:49.349Z,-3.30
2022-12-18T00:59:20.213Z,-3.30
2022-12-18T01:01:48.548Z,-3.30
2022-12-18T01:04:16.290Z,-3.30
2022-12-18T01:06:46.721Z,-3.30
2022-12-18T01:09:14.188Z,-3.20
2022-12-18T01:11:41.421Z,-3.20
2022-12-18T01:14:08.671Z,-3.20
2022-12-18T01:16:38.381Z,-3.20
2022-12-18T01:19:05.573Z,-3.30
2022-12-18T01:21:33.377Z,-3.30
2022-12-18T01:24:05.415Z,-3.30
2022-12-18T01:26:32.741Z,-3.40
2022-12-18T01:28:59.993Z,-3.30
2022-12-18T01:31:30.427Z,-3.30
2022-12-18T01:33:58.655Z,-3.40
2022-12-18T01:36:29.026Z,-3.30
2022-12-18T01:38:56.998Z,-3.30
2022-12-18T01:41:26.816Z,-3.30
2022-12-18T01:43:57.869Z,-3.40
2022-12-18T01:46:28.657Z,-3.30
2022-12-18T01:49:00.814Z,-3.30
2022-12-18T01:51:31.746Z,-3.30
2022-12-18T01:54:00.241Z,-3.30
2022-12-18T01:56:27.655Z,-3.30
2022-12-18T01:59:05.594Z,-3.30
2022-12-18T02:01:34.038Z,-3.40
2022-12-18T02:04:23.996Z,-3.40
2022-12-18T02:07:19.982Z,-3.40
2022-12-18T02:09:53.528Z,-3.40
2022-12-18T02:12:23.807Z,-3.40
2022-12-18T02:15:07.437Z,-3.40
2022-12-18T02:17:48.497Z,-3.30
2022-12-18T02:20:33.851Z,-3.30
2022-12-18T02:23:37.588Z,-3.30
2022-12-18T02:26:38.968Z,-3.30
2022-12-18T02:29:12.839Z,-3.30
2022-12-18T02:31:46.055Z,-3.40
2022-12-18T02:34:33.734Z,-3.40
2022-12-18T02:37:05.357Z,-3.40
2022-12-18T02:39:36.632Z,-3.30
2022-12-18T02:42:08.855Z,-3.30
2022-12-18T02:44:44.450Z,-3.40
2022-12-18T02:47:18.846Z,-3.30
2022-12-18T02:50:04.089Z,-3.40
2022-12-18T02:52:37.793Z,-3.30
2022-12-18T02:55:33.663Z,-3.30
2022-12-18T02:58:26.945Z,-3.30
2022-12-18T03:01:13.100Z,-3.30
2022-12-18T03:04:03.801Z,-3.30
2022-12-18T03:06:38.134Z,-3.20
2022-12-18T03:09:15.745Z,-3.30
2022-12-18T03:12:07.436Z,-3.30
2022-12-18T03:14:37.981Z,-3.30
2022-12-18T03:17:08.613Z,-3.30
2022-12-18T03:19:38.495Z,-3.30
2022-12-18T03:22:08.397Z,-3.40
2022-12-18T03:24:47.186Z,-3.40
2022-12-18T03:27:18.302Z,-3.40
2022-12-18T03:29:53.821Z,-3.40
2022-12-18T03:32:34.587Z,-3.40
2022-12-18T03:35:06.412Z,-3.40
2022-12-18T03:37:37.359Z,-3.40
2022-12-18T03:40:06.625Z,-3.40
2022-12-18T03:42:44.447Z,-3.40
2022-12-18T03:45:41.101Z,-3.40
2022-12-18T03:48:24.927Z,-3.40
2022-12-18T03:50:53.330Z,-3.30
2022-12-18T03:53:53.643Z,-3.30
2022-12-18T03:56:27.798Z,-3.30
2022-12-18T03:58:57.615Z,-3.30
2022-12-18T04:01:35.112Z,-3.30
2022-12-18T04:04:04.597Z,-3.30
2022-12-18T04:06:35.558Z,-3.20
2022-12-18T04:09:03.215Z,-3.20
2022-12-18T04:11:34.411Z,-3.20
2022-12-18T04:14:07.317Z,-3.20
2022-12-18T04:16:35.296Z,-3.20
2022-12-18T04:19:05.304Z,-3.20
2022-12-18T04:21:38.904Z,-3.20
2022-12-18T04:24:07.142Z,-3.20
2022-12-18T04:26:36.636Z,-3.20
2022-12-18T04:29:17.113Z,-3.30
2022-12-18T04:31:44.641Z,-3.30
2022-12-18T04:34:12.369Z,-3.40
2022-12-18T04:36:45.376Z,-3.40
2022-12-18T04:39:14.521Z,-3.40
2022-12-18T04:41:42.304Z,-3.30
2022-12-18T04:44:11.442Z,-3.30
2022-12-18T04:46:38.687Z,-3.40
2022-12-18T04:49:05.904Z,-3.50
2022-12-18T04:51:33.350Z,-3.50
2022-12-18T04:54:00.944Z,-3.50
2022-12-18T04:56:28.362Z,-3.50
2022-12-18T04:58:55.503Z,-3.40
2022-12-18T05:01:22.899Z,-3.50
2022-12-18T05:03:51.639Z,-3.50
2022-12-18T05:06:19.276Z,-3.40
2022-12-18T05:08:46.530Z,-3.30
2022-12-18T05:11:16.744Z,-3.30
2022-12-18T05:13:45.370Z,-3.30
2022-12-18T05:16:13.426Z,-3.40
2022-12-18T05:18:40.897Z,-3.40
2022-12-18T05:21:08.154Z,-3.50
2022-12-18T05:23:35.794Z,-3.50
2022-12-18T05:26:06.113Z,-3.50
2022-12-18T05:28:35.750Z,-3.40
2022-12-18T05:31:04.753Z,-3.30
2022-12-18T05:33:34.283Z,-3.30
2022-12-18T05:36:03.435Z,-3.30
2022-12-18T05:38:31.765Z,-3.30
2022-12-18T05:40:59.487Z,-3.30
2022-12-18T05:43:28.113Z,-3.30
2022-12-18T05:45:56.667Z,-3.40
2022-12-18T05:48:23.905Z,-3.40
2022-12-18T05:50:51.932Z,-3.50
2022-12-18T05:53:21.606Z,-3.50
2022-12-18T05:55:49.157Z,-3.50
2022-12-18T05:58:17.029Z,-3.50
2022-12-18T06:00:46.842Z,-3.60
2022-12-18T06:03:14.961Z,-3.50
2022-12-18T06:05:44.923Z,-3.60
2022-12-18T06:08:14.015Z,-3.50
2022-12-18T06:10:42.183Z,-3.50
2022-12-18T06:13:09.856Z,-3.40
2022-12-18T06:15:38.514Z,-3.40
2022-12-18T06:18:05.913Z,-3.40
2022-12-18T06:20:33.783Z,-3.40
2022-12-18T06:23:01.444Z,-3.40
2022-12-18T06:25:28.814Z,-3.50
2022-12-18T06:27:55.991Z,-3.60
2022-12-18T06:30:23.301Z,-3.70
2022-12-18T06:32:56.300Z,-3.70
2022-12-18T06:35:24.345Z,-3.70
2022-12-18T06:37:51.766Z,-3.70
2022-12-18T06:40:19.644Z,-3.70
2022-12-18T06:42:47.127Z,-3.60
2022-12-18T06:45:14.483Z,-3.60
2022-12-18T06:47:41.683Z,-3.60
2022-12-18T06:50:08.878Z,-3.60
2022-12-18T06:52:36.050Z,-3.60
2022-12-18T06:55:03.482Z,-3.60
2022-12-18T06:57:30.651Z,-3.70
2022-12-18T06:59:57.810Z,-3.70
2022-12-18T07:02:25.292Z,-3.70
2022-12-18T07:04:52.732Z,-3.70
2022-12-18T07:07:19.890Z,-3.70
2022-12-18T07:09:47.043Z,-3.80
2022-12-18T07:12:14.208Z,-3.70
2022-12-18T07:14:41.350Z,-3.60
2022-12-18T07:17:08.778Z,-3.60
2022-12-18T07:19:36.020Z,-3.60
2022-12-18T07:22:03.273Z,-3.60
2022-12-18T07:24:33.123Z,-3.60
2022-12-18T07:27:00.467Z,-3.60
2022-12-18T07:29:27.622Z,-3.60
2022-12-18T07:31:54.850Z,-3.60
2022-12-18T07:34:22.117Z,-3.60
2022-12-18T07:36:49.306Z,-3.50
2022-12-18T07:39:16.561Z,-3.50
2022-12-18T07:41:47.532Z,-3.50
2022-12-18T07:44:16.921Z,-3.50
2022-12-18T07:46:44.085Z,-3.60
2022-12-18T07:49:11.216Z,-3.60
2022-12-18T07:51:38.390Z,-3.50
2022-12-18T07:54:05.654Z,-3.50
2022-12-18T07:56:33.030Z,-3.60
2022-12-18T07:59:03.769Z,-3.70
2022-12-18T08:01:31.099Z,-3.70
2022-12-18T08:03:59.536Z,-3.70
2022-12-18T08:06:26.811Z,-3.60
2022-12-18T08:08:55.265Z,-3.50
2022-12-18T08:11:24.175Z,-3.50
2022-12-18T08:13:51.567Z,-3.50
2022-12-18T08:16:18.993Z,-3.50
2022-12-18T08:18:46.923Z,-3.60
2022-12-18T08:21:20.426Z,-3.60
2022-12-18T08:23:49.657Z,-3.60
2022-12-18T08:26:18.483Z,-3.50
2022-12-18T08:28:46.545Z,-3.50
2022-12-18T08:31:13.961Z,-3.40
2022-12-18T08:33:42.615Z,-3.40
2022-12-18T08:36:10.987Z,-3.30
2022-12-18T08:38:38.299Z,-3.30
2022-12-18T08:41:10.828Z,-3.30
2022-12-18T08:43:56.706Z,-3.40
2022-12-18T08:46:26.973Z,-3.30
2022-12-18T08:48:56.098Z,-3.30
2022-12-18T08:51:23.564Z,-3.30
2022-12-18T08:53:50.782Z,-3.30
2022-12-18T08:56:17.997Z,-3.10
2022-12-18T08:58:45.341Z,-3.20
2022-12-18T09:01:14.596Z,-3.10
2022-12-18T09:03:42.259Z,-3.10
2022-12-18T09:06:10.088Z,-3.00
2022-12-18T09:08:40.517Z,-3.00
2022-12-18T09:11:20.410Z,-2.90
2022-12-18T09:13:47.708Z,-2.90
2022-12-18T09:16:15.218Z,-2.90
2022-12-18T09:18:42.809Z,-2.90
2022-12-18T09:21:16.314Z,-2.90
2022-12-18T09:23:43.769Z,-2.90
2022-12-18T09:26:11.546Z,-2.90
2022-12-18T09:28:39.481Z,-2.90
2022-12-18T09:31:08.713Z,-2.80
2022-12-18T09:33:37.427Z,-2.90
2022-12-18T09:36:07.774Z,-2.90
2022-12-18T09:38:35.749Z,-2.80
2022-12-18T09:41:17.998Z,-2.80
2022-12-18T09:43:54.733Z,-2.80
2022-12-18T09:46:34.864Z,-2.80
2022-12-18T09:49:06.867Z,-2.80
2022-12-18T09:51:44.310Z,-2.70
2022-12-18T09:54:17.523Z,-2.70
2022-12-18T09:56:44.937Z,-2.70
2022-12-18T09:59:32.973Z,-2.70
2022-12-18T10:02:06.330Z,-2.80
2022-12-18T10:04:33.957Z,-2.80
2022-12-18T10:07:36.336Z,-2.70
2022-12-18T10:10:23.819Z,-2.70
2022-12-18T10:13:10.679Z,-2.70
2022-12-18T10:15:46.933Z,-2.60
2022-12-18T10:18:38.833Z,-2.60
2022-12-18T10:21:13.173Z,-2.80
2022-12-18T10:23:51.907Z,-2.90
2022-12-18T10:26:19.091Z,-2.90
2022-12-18T10:28:47.096Z,-2.80
2022-12-18T10:31:18.882Z,-2.70
2022-12-18T10:33:46.518Z,-2.60
2022-12-18T10:36:13.730Z,-2.50
2022-12-18T10:38:41.692Z,-2.50
2022-12-18T10:41:22.979Z,-2.50
2022-12-18T10:44:17.110Z,-2.60
2022-12-18T10:46:46.597Z,-2.60
2022-12-18T10:49:42.727Z,-2.80
2022-12-18T10:52:19.697Z,-2.70
2022-12-18T10:54:53.945Z,-2.70
2022-12-18T10:57:27.216Z,-2.60
2022-12-18T10:59:56.870Z,-2.50
2022-12-18T11:02:29.888Z,-2.50
2022-12-18T11:05:00.823Z,-2.50
2022-12-18T11:07:49.995Z,-2.40
2022-12-18T11:10:22.318Z,-2.30
2022-12-18T11:12:49.997Z,-2.30
2022-12-18T11:15:22.658Z,-2.20
2022-12-18T11:17:51.891Z,-2.20
2022-12-18T11:20:35.191Z,-2.30
2022-12-18T11:23:06.512Z,-2.30
2022-12-18T11:25:36.456Z,-2.30
2022-12-18T11:28:26.669Z,-2.20
2022-12-18T11:31:27.034Z,-2.20
2022-12-18T11:34:27.340Z,-2.10
2022-12-18T11:36:48.823Z,-2.10
2022-12-18T11:39:45.931Z,-2.10
2022-12-18T11:42:45.190Z,-2.10
2022-12-18T11:45:12.591Z,-2.10
2022-12-18T11:47:48.056Z,-2.10
2022-12-18T11:50:38.150Z,-2.10
2022-12-18T11:53:06.453Z,-2.00
2022-12-18T11:55:54.856Z,-2.00
2022-12-18T11:58:56.937Z,-2.10
2022-12-18T12:01:43.347Z,-2.20
2022-12-18T12:04:45.444Z,-2.20
2022-12-18T12:07:24.650Z,-2.20
2022-12-18T12:10:00.627Z,-2.20
2022-12-18T12:12:56.399Z,-2.20
2022-12-18T12:15:41.856Z,-2.20
2022-12-18T12:18:28.573Z,-2.20
2022-12-18T12:21:22.587Z,-2.20
2022-12-18T12:24:27.454Z,-2.20
2022-12-18T12:27:13.273Z,-2.10
2022-12-18T12:30:03.613Z,-2.20
2022-12-18T12:32:44.670Z,-2.20
2022-12-18T12:35:17.989Z,-2.30
2022-12-18T12:38:02.575Z,-2.40
2022-12-18T12:40:53.815Z,-2.40
2022-12-18T12:43:50.669Z,-2.60
2022-12-18T12:46:22.396Z,-2.70
2022-12-18T12:48:58.518Z,-2.60
2022-12-18T12:51:37.889Z,-2.70
2022-12-18T12:54:12.502Z,-2.70
2022-12-18T12:57:01.394Z,-2.60
2022-12-18T12:59:50.649Z,-2.50
2022-12-18T13:02:48.590Z,-2.50
2022-12-18T13:05:39.511Z,-2.40
2022-12-18T13:08:07.861Z,-2.30
2022-12-18T13:10:37.984Z,-2.30
2022-12-18T13:13:13.361Z,-2.30
2022-12-18T13:15:42.243Z,-2.30
2022-12-18T13:18:09.573Z,-2.30
2022-12-18T13:21:01.519Z,-2.30
2022-12-18T13:23:37.228Z,-2.30
2022-12-18T13:26:08.909Z,-2.30
2022-12-18T13:28:48.389Z,-2.30
2022-12-18T13:31:42.283Z,-2.20
2022-12-18T13:34:27.580Z,-2.20
2022-12-18T13:37:17.549Z,-2.20
2022-12-18T13:39:44.931Z,-2.20
2022-12-18T13:42:35.878Z,-2.20
2022-12-18T13:45:23.140Z,-2.30
2022-12-18T13:47:51.155Z,-2.30
2022-12-18T13:50:28.566Z,-2.30
2022-12-18T13:52:59.735Z,-2.40
2022-12-18T13:55:27.586Z,-2.40
2022-12-18T13:58:05.684Z,-2.40
2022-12-18T14:00:32.878Z,-2.50
2022-12-18T14:03:00.957Z,-2.60
2022-12-18T14:05:31.105Z,-2.60
2022-12-18T14:08:12.033Z,-2.60
2022-12-18T14:10:50.106Z,-2.70
2022-12-18T14:13:38.752Z,-2.70
2022-12-18T14:16:08.569Z,-2.70
2022-12-18T14:18:46.456Z,-2.80
2022-12-18T14:21:29.139Z,-2.70
2022-12-18T14:24:18.990Z,-2.70
2022-12-18T14:26:50.347Z,-2.80
2022-12-18T14:29:31.635Z,-2.90
2022-12-18T14:32:17.682Z,-2.90
2022-12-18T14:34:50.582Z,-2.90
2022-12-18T14:37:23.320Z,-2.90
2022-12-18T14:40:08.689Z,-3.00
2022-12-18T14:42:38.094Z,-2.90
2022-12-18T14:45:42.138Z,-2.90
2022-12-18T14:48:25.458Z,-2.90
2022-12-18T14:51:15.650Z,-2.90
2022-12-18T14:53:50.709Z,-3.00
2022-12-18T14:56:29.950Z,-3.00
2022-12-18T14:59:04.317Z,-3.00
2022-12-18T15:01:36.322Z,-3.10
2022-12-18T15:04:05.861Z,-3.30
2022-12-18T15:06:40.760Z,-3.40
2022-12-18T15:09:24.383Z,-3.40
2022-12-18T15:11:58.150Z,-3.50
2022-12-18T15:14:55.011Z,-3.60
2022-12-18T15:17:24.573Z,-3.60
2022-12-18T15:20:04.096Z,-3.70
2022-12-18T15:22:35.484Z,-3.70
2022-12-18T15:25:04.953Z,-3.80
2022-12-18T15:27:38.530Z,-3.80
2022-12-18T15:30:11.265Z,-3.80
2022-12-18T15:32:39.178Z,-3.70
2022-12-18T15:35:09.356Z,-3.70
2022-12-18T15:37:36.590Z,-3.70
2022-12-18T15:40:04.669Z,-3.60
2022-12-18T15:42:50.312Z,-3.50
2022-12-18T15:45:17.730Z,-3.50
2022-12-18T15:47:46.261Z,-3.50
2022-12-18T15:50:13.558Z,-3.50
2022-12-18T15:52:43.757Z,-3.50
2022-12-18T15:55:40.834Z,-3.60
2022-12-18T15:58:10.905Z,-3.60
2022-12-18T16:00:40.513Z,-3.60
2022-12-18T16:03:09.236Z,-3.60
2022-12-18T16:05:36.607Z,-3.70
2022-12-18T16:08:03.925Z,-3.70
2022-12-18T16:10:31.447Z,-3.70
2022-12-18T16:12:58.641Z,-3.70
2022-12-18T16:15:25.789Z,-3.80
2022-12-18T16:17:53.103Z,-3.90
2022-12-18T16:20:22.810Z,-3.90
2022-12-18T16:22:50.396Z,-4.00
2022-12-18T16:25:19.338Z,-4.00
2022-12-18T16:27:46.512Z,-4.00
2022-12-18T16:30:21.452Z,-4.00
2022-12-18T16:32:48.770Z,-3.90
2022-12-18T16:35:16.988Z,-4.00
2022-12-18T16:37:45.061Z,-3.90
2022-12-18T16:40:14.962Z,-3.90
2022-12-18T16:42:43.891Z,-3.80
2022-12-18T16:45:14.891Z,-3.70
2022-12-18T16:47:42.428Z,-3.70
2022-12-18T16:50:10.365Z,-3.70
2022-12-18T16:52:38.272Z,-3.70
2022-12-18T16:55:05.995Z,-3.70
2022-12-18T16:57:33.724Z,-3.70
2022-12-18T17:00:05.291Z,-3.70
2022-12-18T17:02:33.981Z,-3.60
2022-12-18T17:05:01.458Z,-3.70
2022-12-18T17:07:29.136Z,-3.70
2022-12-18T17:09:56.355Z,-3.70
2022-12-18T17:12:23.807Z,-3.60
2022-12-18T17:14:51.174Z,-3.60
2022-12-18T17:17:21.352Z,-3.60
2022-12-18T17:19:49.362Z,-3.70
2022-12-18T17:22:16.540Z,-3.70
2022-12-18T17:24:43.753Z,-3.70
2022-12-18T17:27:10.942Z,-3.60
2022-12-18T17:29:41.266Z,-3.60
2022-12-18T17:32:14.024Z,-3.60
2022-12-18T17:34:41.340Z,-3.60
2022-12-18T17:37:09.240Z,-3.60
2022-12-18T17:39:36.514Z,-3.60
2022-12-18T17:42:03.906Z,-3.50
2022-12-18T17:44:34.203Z,-3.50
2022-12-18T17:47:01.799Z,-3.50
2022-12-18T17:49:29.472Z,-3.50
2022-12-18T17:51:56.670Z,-3.50
2022-12-18T17:54:23.933Z,-3.50
2022-12-18T17:56:51.155Z,-3.50
2022-12-18T17:59:18.477Z,-3.60
2022-12-18T18:01:46.574Z,-3.50
2022-12-18T18:04:14.380Z,-3.60
2022-12-18T18:06:41.927Z,-3.60
2022-12-18T18:09:16.164Z,-3.60
2022-12-18T18:12:04.112Z,-3.70
2022-12-18T18:14:31.519Z,-3.80
2022-12-18T18:17:04.294Z,-3.80
2022-12-18T18:19:32.920Z,-3.70
2022-12-18T18:22:00.381Z,-3.60
2022-12-18T18:24:27.654Z,-3.60
2022-12-18T18:26:54.898Z,-3.60
2022-12-18T18:29:26.562Z,-3.70
2022-12-18T18:31:56.868Z,-3.70
2022-12-18T18:34:26.773Z,-3.70
2022-12-18T18:36:54.194Z,-3.70
2022-12-18T18:39:21.478Z,-3.80
2022-12-18T18:41:48.996Z,-3.90
2022-12-18T18:44:17.624Z,-4.00
2022-12-18T18:46:45.145Z,-4.10
2022-12-18T18:49:13.927Z,-4.20
2022-12-18T18:51:42.375Z,-4.20
2022-12-18T18:54:09.892Z,-4.30
2022-12-18T18:57:03.766Z,-4.30
2022-12-18T18:59:31.198Z,-4.30
2022-12-18T19:02:00.383Z,-4.30
2022-12-18T19:04:32.456Z,-4.30
2022-12-18T19:06:59.779Z,-4.20
2022-12-18T19:09:28.755Z,-4.30
2022-12-18T19:12:14.745Z,-4.20
2022-12-18T19:14:42.391Z,-4.20
2022-12-18T19:17:10.937Z,-4.20
2022-12-18T19:19:38.725Z,-4.20
2022-12-18T19:22:06.227Z,-4.10
2022-12-18T19:24:33.541Z,-4.10
2022-12-18T19:27:02.038Z,-4.00
2022-12-18T19:29:29.261Z,-4.00
2022-12-18T19:31:56.470Z,-4.00
2022-12-18T19:34:23.682Z,-4.00
2022-12-18T19:36:55.269Z,-4.10
2022-12-18T19:39:26.868Z,-4.20
2022-12-18T19:41:54.503Z,-4.10
2022-12-18T19:44:21.668Z,-4.10
2022-12-18T19:46:51.583Z,-4.10
2022-12-18T19:49:18.826Z,-4.20
2022-12-18T19:51:46.509Z,-4.10
2022-12-18T19:54:16.987Z,-4.10
2022-12-18T19:56:45.299Z,-4.10
2022-12-18T19:59:12.827Z,-4.10
2022-12-18T20:01:40.917Z,-4.10
2022-12-18T20:04:08.441Z,-4.10
2022-12-18T20:06:50.405Z,-4.10
2022-12-18T20:09:19.116Z,-4.00
2022-12-18T20:11:46.469Z,-4.10
2022-12-18T20:14:19.680Z,-4.10
2022-12-18T20:16:52.121Z,-4.10
2022-12-18T20:19:20.515Z,-4.10
2022-12-18T20:21:48.417Z,-4.10
2022-12-18T20:24:15.605Z,-4.10
2022-12-18T20:26:42.921Z,-4.10
2022-12-18T20:29:10.087Z,-4.10
2022-12-18T20:31:37.280Z,-4.20
2022-12-18T20:34:06.087Z,-4.10
2022-12-18T20:36:36.267Z,-4.20
2022-12-18T20:39:08.970Z,-4.20
2022-12-18T20:41:38.972Z,-4.10
2022-12-18T20:44:21.471Z,-4.10
2022-12-18T20:47:08.676Z,-4.00
2022-12-18T20:49:36.071Z,-4.10
2022-12-18T20:52:05.946Z,-4.10
2022-12-18T20:54:33.157Z,-4.10
2022-12-18T20:57:00.316Z,-4.10
2022-12-18T20:59:27.586Z,-4.00
2022-12-18T21:01:55.457Z,-4.00
2022-12-18T21:04:23.486Z,-3.90
2022-12-18T21:07:00.455Z,-4.00
2022-12-18T21:09:33.702Z,-3.90
2022-12-18T21:12:29.548Z,-4.00
2022-12-18T21:15:02.497Z,-4.00
2022-12-18T21:17:29.861Z,-4.00
2022-12-18T21:20:01.396Z,-4.00
2022-12-18T21:22:28.618Z,-4.00
2022-12-18T21:24:55.884Z,-4.00
2022-12-18T21:27:23.079Z,-4.00
2022-12-18T21:29:50.595Z,-4.00
2022-12-18T21:32:19.859Z,-4.00
2022-12-18T21:34:48.475Z,-4.00
2022-12-18T21:37:15.860Z,-3.90
2022-12-18T21:39:43.045Z,-3.90
2022-12-18T21:42:30.574Z,-3.90
2022-12-18T21:44:57.822Z,-3.90
2022-12-18T21:47:24.988Z,-3.90
2022-12-18T21:49:53.033Z,-3.90
2022-12-18T21:52:24.537Z,-3.90
2022-12-18T21:55:09.167Z,-3.80
2022-12-18T21:57:39.057Z,-4.00
2022-12-18T22:00:07.624Z,-4.00
2022-12-18T22:02:40.729Z,-4.00
2022-12-18T22:05:08.554Z,-4.10
2022-12-18T22:07:36.092Z,-4.10
2022-12-18T22:10:03.343Z,-4.10
2022-12-18T22:12:42.930Z,-4.10
2022-12-18T22:15:13.146Z,-4.10
2022-12-18T22:17:48.471Z,-4.20
2022-12-18T22:20:15.975Z,-4.10
2022-12-18T22:22:43.362Z,-4.10
2022-12-18T22:25:10.921Z,-4.10
2022-12-18T22:27:38.074Z,-4.10
2022-12-18T22:30:05.921Z,-4.20
2022-12-18T22:32:34.997Z,-4.20
2022-12-18T22:35:08.285Z,-4.10
2022-12-18T22:37:37.762Z,-4.10
2022-12-18T22:40:07.532Z,-4.10
2022-12-18T22:42:35.762Z,-4.10
2022-12-18T22:45:03.001Z,-4.10
2022-12-18T22:47:30.830Z,-4.10
2022-12-18T22:49:58.459Z,-4.10
2022-12-18T22:52:25.874Z,-4.10
2022-12-18T22:54:54.258Z,-4.10
2022-12-18T22:57:22.777Z,-4.00
2022-12-18T22:59:51.100Z,-4.00
2022-12-18T23:02:18.933Z,-4.00
2022-12-18T23:04:47.475Z,-4.00
2022-12-18T23:07:15.030Z,-4.00
2022-12-18T23:09:42.195Z,-4.00
2022-12-18T23:12:19.537Z,-4.10
2022-12-18T23:14:47.222Z,-4.10
2022-12-18T23:17:14.493Z,-4.10
2022-12-18T23:19:47.110Z,-4.10
2022-12-18T23:22:17.072Z,-4.00
2022-12-18T23:24:44.455Z,-4.00
2022-12-18T23:27:12.274Z,-4.00
2022-12-18T23:29:40.478Z,-4.00
2022-12-18T23:32:08.037Z,-3.90
2022-12-18T23:34:35.254Z,-3.90
2022-12-18T23:37:03.564Z,-3.90
2022-12-18T23:39:30.918Z,-4.00
2022-12-18T23:41:59.312Z,-4.00
2022-12-18T23:44:26.609Z,-4.00
2022-12-18T23:46:53.897Z,-4.00
2022-12-18T23:49:21.196Z,-3.90
2022-12-18T23:51:48.905Z,-3.90
2022-12-18T23:54:16.228Z,-3.80
2022-12-18T23:56:43.403Z,-3.90
2022-12-18T23:59:10.591Z,-3.90
